Time;durP1;ratioP1;P1;durP2;ratioP2;P2;SDS_P1;SDS_P2;PMS_P1;PMS_P2;Temp;Humidity;BMP_temperature;BMP_pressure;BME280_temperature;BME280_humidity;BME280_pressure;Samples;Min_cycle;Max_cycle;Signal;HPM_P1;HPM_P2
2023/07/30 00:01:29;;;;;;;13.60;11.00;;;;;;;15.51;100.00;97083.77;109997;1244;59699;-68
2023/07/30 00:03:59;;;;;;;;;;;;;;;15.53;100.00;97086.60;110023;1245;59741;-69
2023/07/30 00:06:29;;;;;;;14.60;13.10;;;;;;;15.56;100.00;97084.77;109968;1244;72302;-69
2023/07/30 00:08:58;;;;;;;11.10;10.00;;;;;;;15.58;100.00;97083.31;110025;1244;69235;-69
2023/07/30 00:11:28;;;;;;;13.90;12.00;;;;;;;15.61;100.00;97080.40;110001;1245;69273;-69
2023/07/30 00:13:58;;;;;;;12.40;10.90;;;;;;;15.62;100.00;97081.17;110091;1244;59673;-68
2023/07/30 00:16:28;;;;;;;11.50;10.00;;;;;;;15.62;100.00;97077.27;110068;1244;59698;-68
2023/07/30 00:18:57;;;;;;;10.30;9.30;;;;;;;15.63;100.00;97080.20;110030;1244;71702;-68
2023/07/30 00:21:27;;;;;;;;;;;;;;;15.66;100.00;97079.03;110152;1244;70177;-69
2023/07/30 00:23:59;;;;;;;13.50;11.80;;;;;;;15.66;100.00;97075.29;110247;1245;68512;-69
2023/07/30 00:26:30;;;;;;;11.40;9.60;;;;;;;15.67;100.00;97070.36;109551;1244;673818;-68
2023/07/30 00:29:00;;;;;;;11.60;10.40;;;;;;;15.67;100.00;97059.08;110082;1245;59705;-70
2023/07/30 00:31:31;;;;;;;9.40;8.30;;;;;;;15.63;100.00;97052.45;110034;1244;71276;-68
2023/07/30 00:34:01;;;;;;;11.90;10.80;;;;;;;15.61;100.00;97053.48;110106;1245;69256;-69
2023/07/30 00:36:33;;;;;;;10.70;9.70;;;;;;;15.70;100.00;97055.77;109898;1245;68512;-69
2023/07/30 00:39:03;;;;;;;10.70;9.70;;;;;;;15.68;100.00;97061.20;109975;1244;59752;-69
2023/07/30 00:41:35;;;;;;;12.10;10.60;;;;;;;15.68;100.00;97064.13;109860;1245;59768;-68
2023/07/30 00:44:08;;;;;;;10.60;9.50;;;;;;;15.67;100.00;97066.80;110070;1245;70531;-69
2023/07/30 00:46:40;;;;;;;11.60;10.60;;;;;;;15.66;100.00;97060.21;110078;1244;68416;-69
2023/07/30 00:49:13;;;;;;;12.20;11.00;;;;;;;15.64;100.00;97056.35;110185;1245;68576;-69
2023/07/30 00:51:44;;;;;;;11.20;10.00;;;;;;;15.63;100.00;97050.53;109984;1245;59760;-70
2023/07/30 00:54:15;;;;;;;10.90;9.90;;;;;;;15.62;100.00;97048.84;109779;1245;59689;-69
2023/07/30 00:56:52;;;;;;;12.80;11.50;;;;;;;15.63;100.00;97046.95;109950;1244;71347;-69
2023/07/30 00:59:23;;;;;;;11.20;10.10;;;;;;;15.65;100.00;97043.28;110026;1243;68125;-70
2023/07/30 01:01:57;;;;;;;13.00;10.80;;;;;;;15.66;100.00;97043.16;110008;1244;67491;-70
2023/07/30 01:04:28;;;;;;;11.90;10.70;;;;;;;15.67;100.00;97039.39;110083;1244;59747;-70
2023/07/30 01:07:00;;;;;;;13.10;11.80;;;;;;;15.69;100.00;97036.90;110077;1245;59749;-70
2023/07/30 01:09:31;;;;;;;12.10;10.90;;;;;;;15.71;100.00;97036.32;110115;1244;70696;-70
2023/07/30 01:12:05;;;;;;;12.70;11.50;;;;;;;15.74;100.00;97036.58;110085;1245;68326;-69
2023/07/30 01:14:37;;;;;;;11.20;10.10;;;;;;;15.77;100.00;97040.27;110029;1247;69281;-70
2023/07/30 01:17:10;;;;;;;10.20;9.20;;;;;;;15.80;100.00;97036.82;110100;1244;59750;-70
2023/07/30 01:19:41;;;;;;;11.30;10.10;;;;;;;15.85;100.00;97037.11;110129;1244;59640;-69
2023/07/30 01:22:14;;;;;;;10.00;9.00;;;;;;;15.89;100.00;97039.51;110088;1244;71420;-70
2023/07/30 01:24:47;;;;;;;10.30;9.00;;;;;;;15.92;100.00;97043.04;110036;1244;69733;-70
2023/07/30 01:27:31;;;;;;;10.30;9.30;;;;;;;15.92;100.00;97044.98;110004;1244;68345;-71
2023/07/30 01:30:26;;;;;;;11.60;10.40;;;;;;;15.90;100.00;97046.45;110215;1244;59772;-72
2023/07/30 01:33:01;;;;;;;13.20;11.90;;;;;;;15.93;100.00;97044.39;110003;1244;59644;-70
2023/07/30 01:35:33;;;;;;;12.20;11.00;;;;;;;15.96;100.00;97043.56;109982;1245;71811;-71
2023/07/30 01:38:06;;;;;;;11.00;10.00;;;;;;;15.99;100.00;97044.96;109822;1244;69255;-69
2023/07/30 01:40:36;;;;;;;12.10;10.90;;;;;;;15.99;100.00;97046.94;109912;1245;68398;-69
2023/07/30 01:43:08;;;;;;;10.80;9.30;;;;;;;15.97;100.00;97044.20;110150;1244;59723;-69
2023/07/30 01:45:41;;;;;;;11.10;10.00;;;;;;;15.93;100.00;97045.58;110092;1244;60162;-70
2023/07/30 01:48:15;;;;;;;11.00;9.90;;;;;;;15.89;100.00;97043.70;110178;1243;71221;-68
2023/07/30 01:50:48;;;;;;;11.00;9.60;;;;;;;15.88;100.00;97044.36;110220;1244;69256;-69
2023/07/30 01:53:18;;;;;;;9.80;8.80;;;;;;;15.86;100.00;97047.05;110197;1245;69097;-69
2023/07/30 01:55:49;;;;;;;11.40;10.30;;;;;;;15.84;100.00;97048.47;110058;1245;59734;-69
2023/07/30 01:58:19;;;;;;;11.50;10.30;;;;;;;15.83;100.00;97048.04;110112;1244;59684;-68
2023/07/30 02:00:50;;;;;;;11.30;10.20;;;;;;;15.83;100.00;97046.59;110013;1244;71486;-68
2023/07/30 02:03:20;;;;;;;;;;;;;;;15.83;100.00;97044.82;110122;1244;68596;-68
2023/07/30 02:05:52;;;;;;;8.80;8.00;;;;;;;15.82;100.00;97042.70;110095;1244;68476;-69
2023/07/30 02:08:26;;;;;;;9.70;8.80;;;;;;;15.80;100.00;97043.04;110091;1244;59824;-69
2023/07/30 02:11:01;;;;;;;10.40;9.10;;;;;;;15.77;100.00;97045.38;110113;1244;60130;-70
2023/07/30 02:13:33;;;;;;;10.10;9.10;;;;;;;15.76;100.00;97043.20;110077;1244;70293;-68
2023/07/30 02:16:06;;;;;;;10.70;9.40;;;;;;;15.76;100.00;97042.88;110101;1244;68547;-69
2023/07/30 02:18:37;;;;;;;10.80;9.50;;;;;;;15.78;100.00;97044.05;110117;1244;69404;-70
2023/07/30 02:21:09;;;;;;;11.50;9.50;;;;;;;15.81;100.00;97043.52;110077;1244;60126;-69
2023/07/30 02:23:43;;;;;;;11.20;9.90;;;;;;;15.80;100.00;97045.11;110103;1244;59644;-68
2023/07/30 02:26:17;;;;;;;10.40;9.40;;;;;;;15.79;100.00;97052.73;110037;1244;71412;-70
2023/07/30 02:28:48;;;;;;;10.70;9.50;;;;;;;15.77;100.00;97055.58;109875;1244;68437;-68
2023/07/30 02:31:20;;;;;;;9.90;9.00;;;;;;;15.74;100.00;97060.09;110061;1245;69448;-70
2023/07/30 02:33:57;;;;;;;10.60;9.40;;;;;;;15.71;100.00;97058.45;109891;1244;59684;-68
2023/07/30 02:36:29;;;;;;;11.00;9.60;;;;;;;15.68;100.00;97057.42;110690;1244;59614;-67
2023/07/30 02:39:02;;;;;;;10.30;9.30;;;;;;;15.66;100.00;97061.08;110194;1244;71463;-70
2023/07/30 02:41:37;;;;;;;10.20;9.20;;;;;;;15.65;100.00;97065.22;110165;1244;68750;-68
2023/07/30 02:44:11;;;;;;;11.40;10.20;;;;;;;15.65;100.00;97061.86;110069;1241;68534;-68
2023/07/30 02:46:43;;;;;;;9.70;8.70;;;;;;;15.66;100.00;97060.16;110090;1244;59765;-68
2023/07/30 02:49:15;;;;;;;8.80;8.00;;;;;;;15.66;100.00;97058.25;109969;1244;59719;-68
2023/07/30 02:51:48;;;;;;;10.20;8.50;;;;;;;15.64;100.00;97054.80;109816;1252;71410;-69
2023/07/30 02:54:24;;;;;;;9.70;8.30;;;;;;;15.62;100.00;97051.31;110066;1244;68467;-69
2023/07/30 02:56:57;;;;;;;11.80;9.30;;;;;;;15.58;100.00;97049.09;109927;1243;68559;-68
2023/07/30 02:59:29;;;;;;;10.60;9.70;;;;;;;15.54;100.00;97050.15;109894;1243;59702;-69
2023/07/30 03:02:00;;;;;;;10.80;8.70;;;;;;;15.52;100.00;97051.08;110024;1244;59697;-69
2023/07/30 03:04:32;;;;;;;9.80;8.90;;;;;;;15.49;100.00;97058.04;109906;1244;70282;-69
2023/07/30 03:07:03;;;;;;;10.40;9.40;;;;;;;15.45;100.00;97059.28;109833;1248;68156;-69
2023/07/30 03:09:35;;;;;;;10.40;9.40;;;;;;;15.42;100.00;97058.40;109969;1244;67450;-68
2023/07/30 03:12:07;;;;;;;11.40;10.20;;;;;;;15.38;100.00;97051.73;110006;1242;59681;-69
2023/07/30 03:14:37;;;;;;;10.10;9.10;;;;;;;15.37;100.00;97047.98;110062;1244;59778;-68
2023/07/30 03:17:08;;;;;;;9.10;8.20;;;;;;;15.37;100.00;97044.82;110078;1244;71421;-68
2023/07/30 03:19:39;;;;;;;10.30;9.30;;;;;;;15.36;100.00;97044.00;110045;1245;68535;-68
2023/07/30 03:22:10;;;;;;;10.50;9.50;;;;;;;15.36;100.00;97038.10;110040;1244;68675;-68
2023/07/30 03:24:40;;;;;;;11.20;9.90;;;;;;;15.36;100.00;97040.70;109892;1245;59653;-66
2023/07/30 03:27:13;;;;;;;10.90;9.40;;;;;;;15.37;100.00;97043.40;110028;1244;59702;-68
2023/07/30 03:29:43;;;;;;;9.30;8.30;;;;;;;15.38;100.00;97043.46;110109;1244;71410;-67
2023/07/30 03:32:14;;;;;;;10.00;9.00;;;;;;;15.40;100.00;97041.20;109993;1244;68350;-66
2023/07/30 03:34:46;;;;;;;9.30;8.50;;;;;;;15.41;100.00;97042.33;110019;1244;68599;-67
2023/07/30 03:37:16;;;;;;;10.20;9.20;;;;;;;15.43;100.00;97051.56;110063;1244;59686;-67
2023/07/30 03:39:46;;;;;;;9.90;8.90;;;;;;;15.46;100.00;97052.67;110008;1244;59686;-69
2023/07/30 03:42:17;;;;;;;8.60;7.60;;;;;;;15.51;100.00;97056.05;110397;1251;71494;-67
2023/07/30 03:44:49;;;;;;;8.50;7.70;;;;;;;15.55;100.00;97053.35;110246;1242;67731;-69
2023/07/30 03:47:21;;;;;;;9.00;8.10;;;;;;;15.44;100.00;97056.80;110098;1244;69668;-69
2023/07/30 03:49:51;;;;;;;9.40;8.30;;;;;;;15.54;100.00;97056.47;110168;1244;59716;-70
2023/07/30 03:52:21;;;;;;;9.90;7.80;;;;;;;15.69;100.00;97053.25;110165;1241;59705;-69
2023/07/30 03:54:52;;;;;;;9.20;8.30;;;;;;;15.78;100.00;97055.87;109966;1245;71466;-70
2023/07/30 03:57:22;;;;;;;9.80;8.30;;;;;;;15.88;100.00;97059.64;110004;1247;69547;-70
2023/07/30 03:59:52;;;;;;;;;;;;;;;15.98;100.00;97059.45;109976;1246;69460;-70
2023/07/30 04:02:22;;;;;;;8.80;8.00;;;;;;;16.11;100.00;97063.17;110009;1246;59776;-69
2023/07/30 04:04:54;;;;;;;7.70;6.90;;;;;;;16.24;100.00;97066.72;110134;1243;59644;-68
2023/07/30 04:07:24;;;;;;;9.00;8.10;;;;;;;16.33;100.00;97065.80;110101;1244;71268;-67
2023/07/30 04:09:54;;;;;;;;;;;;;;;16.46;100.00;97064.77;109983;1244;68354;-68
2023/07/30 04:12:24;;;;;;;8.00;7.20;;;;;;;16.59;100.00;97068.04;109983;1243;69667;-70
2023/07/30 04:14:55;;;;;;;8.60;7.80;;;;;;;16.72;100.00;97071.63;110057;1245;59762;-70
2023/07/30 04:17:25;;;;;;;8.70;7.50;;;;;;;16.93;100.00;97070.42;110075;1244;59701;-69
2023/07/30 04:19:57;;;;;;;8.20;7.40;;;;;;;17.07;100.00;97072.96;109999;1245;69739;-71
2023/07/30 04:22:28;;;;;;;7.90;7.20;;;;;;;17.22;100.00;97073.19;109983;1244;69115;-70
2023/07/30 04:24:58;;;;;;;;;;;;;;;17.41;100.00;97078.75;109783;1246;69440;-69
2023/07/30 04:27:27;;;;;;;8.00;7.20;;;;;;;17.59;100.00;97077.20;110044;1244;59696;-70
2023/07/30 04:30:00;;;;;;;8.50;6.60;;;;;;;17.77;100.00;97078.77;110132;1244;59699;-68
2023/07/30 04:32:30;;;;;;;7.30;6.60;;;;;;;17.90;100.00;97078.30;109934;1243;70489;-69
2023/07/30 04:35:02;;;;;;;6.00;5.50;;;;;;;17.98;100.00;97077.55;110009;1244;69881;-69
2023/07/30 04:37:32;;;;;;;8.50;7.00;;;;;;;18.06;100.00;97079.02;110067;1244;69114;-70
2023/07/30 04:40:02;;;;;;;10.50;9.40;;;;;;;18.11;100.00;97084.15;109903;1244;60155;-69
2023/07/30 04:42:33;;;;;;;27.80;20.80;;;;;;;18.14;100.00;97087.45;110108;1244;59701;-70
2023/07/30 04:45:02;;;;;;;22.90;17.40;;;;;;;18.16;100.00;97090.62;110045;1244;72371;-70
2023/07/30 04:47:34;;;;;;;29.90;19.50;;;;;;;18.14;100.00;97089.80;110098;1244;69062;-69
2023/07/30 04:50:05;;;;;;;27.00;16.90;;;;;;;18.21;100.00;97087.91;110330;1244;69204;-70
2023/07/30 04:52:34;;;;;;;18.80;14.10;;;;;;;18.36;100.00;97084.74;110151;1244;59685;-70
2023/07/30 04:55:04;;;;;;;12.40;10.70;;;;;;;18.52;100.00;97087.04;110016;1243;59833;-71
2023/07/30 04:57:34;;;;;;;9.40;8.40;;;;;;;18.64;100.00;97083.63;110134;1245;70646;-70
2023/07/30 05:00:03;;;;;;;;;;;;;;;18.77;100.00;97089.89;109993;1245;69284;-70
2023/07/30 05:02:34;;;;;;;9.00;7.10;;;;;;;18.94;100.00;97084.30;109973;1245;68354;-70
2023/07/30 05:05:04;;;;;;;8.30;7.10;;;;;;;19.13;100.00;97084.96;110012;1244;59711;-71
2023/07/30 05:07:34;;;;;;;7.20;6.50;;;;;;;19.33;100.00;97087.02;110039;1245;59748;-70
2023/07/30 05:10:06;;;;;;;6.60;6.00;;;;;;;19.50;100.00;97087.04;110127;1244;71573;-71
2023/07/30 05:12:36;;;;;;;6.60;6.00;;;;;;;19.72;100.00;97089.59;109968;1245;68740;-70
2023/07/30 05:15:06;;;;;;;6.10;5.50;;;;;;;19.95;100.00;97089.81;110106;1245;69309;-70
2023/07/30 05:17:35;;;;;;;6.50;5.60;;;;;;;20.16;100.00;97093.73;110146;1244;59679;-70
2023/07/30 05:20:05;;;;;;;6.90;6.10;;;;;;;20.27;97.58;97095.22;110055;1245;59685;-69
2023/07/30 05:22:34;;;;;;;5.60;5.10;;;;;;;20.44;99.24;97091.98;110277;1241;71963;-71
2023/07/30 05:25:03;;;;;;;6.60;5.90;;;;;;;20.58;99.93;97091.73;110149;1243;69839;-71
2023/07/30 05:27:33;;;;;;;6.20;5.60;;;;;;;20.61;94.97;97091.74;110091;1244;67654;-70
2023/07/30 05:30:03;;;;;;;6.00;5.30;;;;;;;20.65;94.30;97089.67;110194;1243;59747;-68
2023/07/30 05:32:32;;;;;;;7.00;6.20;;;;;;;20.71;97.42;97085.65;110164;1241;59685;-69
2023/07/30 05:35:02;;;;;;;6.20;5.30;;;;;;;20.75;96.96;97076.25;110111;1244;71454;-70
2023/07/30 05:37:32;;;;;;;5.40;4.90;;;;;;;20.78;96.22;97078.08;110224;1241;69222;-69
2023/07/30 05:40:00;;;;;;;;;;;;;;;20.78;95.10;97079.42;110155;1241;68305;-67
2023/07/30 05:42:30;;;;;;;5.70;5.10;;;;;;;20.80;96.38;97079.09;110188;1241;59683;-70
2023/07/30 05:44:59;;;;;;;5.40;4.90;;;;;;;20.65;93.65;97083.26;110132;1243;59646;-69
2023/07/30 05:47:29;;;;;;;;;;;;;;;20.54;92.87;97089.05;110196;1243;71981;-69
2023/07/30 05:49:59;;;;;;;6.10;5.00;;;;;;;20.43;93.39;97091.23;110132;1242;68398;-67
2023/07/30 05:52:28;;;;;;;5.80;5.20;;;;;;;20.33;94.30;97097.48;110043;1244;69843;-70
2023/07/30 05:54:57;;;;;;;8.10;6.00;;;;;;;20.20;97.20;97104.48;110595;1241;59765;-69
2023/07/30 05:57:26;;;;;;;7.00;5.90;;;;;;;20.25;98.05;97102.67;110176;1241;59773;-68
2023/07/30 05:59:56;;;;;;;7.50;6.60;;;;;;;20.38;98.91;97100.83;110160;1241;71458;-69
2023/07/30 06:02:25;;;;;;;9.30;7.40;;;;;;;20.47;97.80;97095.04;110298;1241;69235;-69
2023/07/30 06:04:55;;;;;;;6.60;5.70;;;;;;;20.70;98.07;97090.83;110097;1244;69542;-69
2023/07/30 06:07:24;;;;;;;7.10;5.80;;;;;;;21.13;96.75;97083.23;110156;1243;59821;-68
2023/07/30 06:09:53;;;;;;;6.20;5.40;;;;;;;21.46;92.23;97077.95;109883;1246;59661;-69
2023/07/30 06:12:22;;;;;;;;;;;;;;;21.62;90.76;97077.27;109947;1242;70821;-68
2023/07/30 06:14:52;;;;;;;5.30;4.40;;;;;;;21.94;90.39;97077.70;110141;1245;69837;-68
2023/07/30 06:17:22;;;;;;;6.20;5.10;;;;;;;22.27;85.12;97076.40;110129;1241;69321;-69
2023/07/30 06:19:51;;;;;;;5.20;4.50;;;;;;;22.67;83.52;97071.51;110130;1244;59811;-68
2023/07/30 06:22:20;;;;;;;;;;;;;;;22.84;82.13;97071.23;110147;1244;59669;-69
2023/07/30 06:24:50;;;;;;;4.90;4.40;;;;;;;23.13;81.02;97069.23;110117;1243;72129;-70
2023/07/30 06:27:19;;;;;;;5.40;4.60;;;;;;;23.51;83.74;97064.19;109988;1244;70259;-68
2023/07/30 06:29:48;;;;;;;5.60;4.60;;;;;;;23.95;81.93;97062.55;110021;1245;68542;-68
2023/07/30 06:32:18;;;;;;;5.00;4.50;;;;;;;24.29;76.60;97059.48;110094;1244;59749;-66
2023/07/30 06:34:47;;;;;;;5.10;4.60;;;;;;;24.49;73.45;97062.63;110070;1244;59684;-69
2023/07/30 06:37:16;;;;;;;4.80;4.30;;;;;;;24.83;72.09;97068.78;110095;1242;71819;-68
2023/07/30 06:39:44;;;;;;;4.70;4.30;;;;;;;24.93;71.48;97066.71;110030;1244;69849;-69
2023/07/30 06:42:14;;;;;;;5.60;4.50;;;;;;;25.51;71.08;97061.75;110020;1244;69249;-68
2023/07/30 06:44:44;;;;;;;4.90;4.40;;;;;;;25.94;69.58;97057.27;110052;1243;59764;-69
2023/07/30 06:47:12;;;;;;;5.40;4.80;;;;;;;26.08;67.12;97059.38;110092;1245;59746;-69
2023/07/30 06:49:41;;;;;;;5.30;4.80;;;;;;;26.21;65.61;97059.56;110060;1244;71978;-69
2023/07/30 06:52:10;;;;;;;4.60;4.20;;;;;;;26.50;64.77;97061.67;110113;1244;69766;-68
2023/07/30 06:54:39;;;;;;;4.90;4.40;;;;;;;26.77;63.89;97056.70;110162;1244;69879;-67
2023/07/30 06:57:08;;;;;;;4.30;3.90;;;;;;;27.12;64.28;97057.96;110193;1245;59735;-68
2023/07/30 06:59:37;;;;;;;4.70;4.30;;;;;;;27.41;61.55;97052.40;110349;1244;59744;-67
2023/07/30 07:02:06;;;;;;;5.20;4.60;;;;;;;27.56;60.69;97053.77;110046;1244;71962;-69
2023/07/30 07:04:35;;;;;;;5.60;4.70;;;;;;;27.51;59.86;97050.45;110104;1244;69864;-68
2023/07/30 07:07:05;;;;;;;5.10;4.50;;;;;;;27.52;57.70;97051.23;109950;1244;69585;-69
2023/07/30 07:09:34;;;;;;;5.00;4.40;;;;;;;27.47;56.91;97045.27;109987;1245;59750;-70
2023/07/30 07:12:03;;;;;;;4.80;4.40;;;;;;;27.86;58.84;97045.61;110055;1244;59687;-67
2023/07/30 07:14:32;;;;;;;5.40;4.50;;;;;;;28.22;57.33;97046.72;109990;1244;71913;-68
2023/07/30 07:17:01;;;;;;;;;;;;;;;28.47;55.59;97045.33;109996;1244;69810;-69
2023/07/30 07:19:31;;;;;;;;;;;;;;;28.19;54.40;97042.77;110010;1245;69910;-70
2023/07/30 07:22:00;;;;;;;5.30;4.80;;;;;;;27.80;56.59;97043.08;110072;1244;59722;-71
2023/07/30 07:24:30;;;;;;;4.70;4.30;;;;;;;27.73;55.33;97039.73;110030;1244;59682;-70
2023/07/30 07:26:59;;;;;;;6.10;4.20;;;;;;;27.65;55.43;97041.39;110035;1245;70696;-69
2023/07/30 07:29:29;;;;;;;4.80;4.40;;;;;;;27.82;56.20;97042.65;110011;1244;69642;-69
2023/07/30 07:31:58;;;;;;;5.00;4.30;;;;;;;27.87;55.10;97043.22;110074;1244;69187;-69
2023/07/30 07:34:26;;;;;;;4.90;4.40;;;;;;;27.90;55.66;97034.95;109792;1243;59722;-69
2023/07/30 07:36:55;;;;;;;5.30;4.80;;;;;;;28.18;56.18;97035.71;110117;1244;59715;-70
2023/07/30 07:39:25;;;;;;;5.00;4.50;;;;;;;28.74;54.71;97035.27;110095;1242;71363;-69
2023/07/30 07:41:55;;;;;;;4.70;4.30;;;;;;;29.29;53.53;97033.45;110065;1245;68763;-68
2023/07/30 07:44:25;;;;;;;4.60;4.10;;;;;;;29.41;50.44;97029.11;110015;1244;69284;-70
2023/07/30 07:46:53;;;;;;;;;;;;;;;29.65;51.08;97025.55;110075;1244;59760;-70
2023/07/30 07:49:22;;;;;;;5.70;4.40;;;;;;;29.10;49.76;97028.71;110080;1244;60155;-69
2023/07/30 07:51:51;;;;;;;7.80;4.10;;;;;;;29.37;50.14;97027.63;109892;1244;70449;-69
2023/07/30 07:54:20;;;;;;;;;;;;;;;29.48;49.48;97024.94;110040;1245;69847;-70
2023/07/30 07:56:50;;;;;;;4.20;3.80;;;;;;;29.90;49.54;97026.64;110125;1244;70252;-70
2023/07/30 07:59:19;;;;;;;4.70;4.30;;;;;;;30.18;47.84;97026.11;110167;1244;59701;-71
2023/07/30 08:01:48;;;;;;;4.30;3.90;;;;;;;30.30;47.42;97025.01;110295;1244;59650;-70
2023/07/30 08:04:17;;;;;;;4.80;4.10;;;;;;;30.35;46.49;97024.71;110060;1244;70771;-71
2023/07/30 08:06:48;;;;;;;5.80;3.80;;;;;;;30.48;47.10;97024.79;110089;1244;68823;-71
2023/07/30 08:09:16;;;;;;;4.80;4.10;;;;;;;30.89;47.66;97028.41;109958;1244;68470;-70
2023/07/30 08:11:45;;;;;;;5.00;3.80;;;;;;;31.17;46.77;97028.60;110002;1244;59731;-70
2023/07/30 08:14:15;;;;;;;5.10;4.60;;;;;;;30.97;46.02;97025.55;110087;1242;60071;-70
2023/07/30 08:16:47;;;;;;;5.40;4.80;;;;;;;30.38;46.50;97029.94;110059;1244;71758;-70
2023/07/30 08:19:16;;;;;;;4.70;4.30;;;;;;;30.38;46.89;97027.45;110025;1244;70169;-70
2023/07/30 08:21:45;;;;;;;;;;;;;;;30.74;46.43;97029.12;110024;1244;69863;-70
2023/07/30 08:24:14;;;;;;;4.40;3.50;;;;;;;31.21;45.69;97028.13;110038;1243;59689;-69
2023/07/30 08:26:43;;;;;;;4.30;3.90;;;;;;;31.42;44.85;97025.19;110090;1243;59760;-70
2023/07/30 08:29:13;;;;;;;5.80;4.30;;;;;;;31.78;45.04;97020.52;109988;1244;71332;-70
2023/07/30 08:31:42;;;;;;;5.50;4.40;;;;;;;31.58;43.48;97019.98;109954;1245;69856;-70
2023/07/30 08:34:11;;;;;;;4.70;4.30;;;;;;;31.07;44.06;97019.45;110031;1245;69088;-70
2023/07/30 08:36:40;;;;;;;4.50;4.00;;;;;;;31.44;44.54;97016.23;110078;1245;60048;-70
2023/07/30 08:39:09;;;;;;;4.90;4.20;;;;;;;31.91;43.91;97016.55;109973;1244;59643;-70
2023/07/30 08:41:39;;;;;;;5.30;4.20;;;;;;;31.52;42.99;97013.92;109912;1244;70978;-70
2023/07/30 08:44:09;;;;;;;4.30;3.90;;;;;;;31.16;43.79;97012.40;110396;1242;69133;-70
2023/07/30 08:46:38;;;;;;;4.30;3.80;;;;;;;31.38;44.59;97016.21;110140;1244;69897;-70
2023/07/30 08:49:07;;;;;;;4.90;4.00;;;;;;;31.53;44.32;97014.77;109961;1244;60097;-69
2023/07/30 08:51:41;;;;;;;4.20;3.80;;;;;;;31.78;44.58;97009.81;110077;1244;59757;-68
2023/07/30 08:54:12;;;;;;;4.80;3.90;;;;;;;31.99;44.17;97008.55;110155;1241;71406;-68
2023/07/30 08:56:41;;;;;;;4.60;4.20;;;;;;;32.70;43.90;97011.00;110207;1243;68815;-70
2023/07/30 08:59:12;;;;;;;4.50;3.80;;;;;;;33.13;42.55;97007.86;110098;1244;69867;-70
2023/07/30 09:01:44;;;;;;;4.70;4.10;;;;;;;33.41;41.11;96998.06;110133;1243;60137;-69
2023/07/30 09:04:17;;;;;;;5.20;4.30;;;;;;;33.12;41.53;96997.07;110156;1241;59734;-69
2023/07/30 09:06:50;;;;;;;4.00;3.60;;;;;;;33.41;41.30;96996.15;110156;1244;71235;-69
2023/07/30 09:09:21;;;;;;;4.70;3.80;;;;;;;33.78;40.40;96997.41;110104;1244;69818;-69
2023/07/30 09:11:53;;;;;;;4.30;3.90;;;;;;;33.85;40.00;96994.55;110117;1241;69279;-69
2023/07/30 09:14:23;;;;;;;4.30;3.90;;;;;;;34.17;39.86;96994.22;110104;1242;59765;-68
2023/07/30 09:17:01;;;;;;;4.50;3.90;;;;;;;34.41;39.44;96989.64;110148;1244;59656;-69
2023/07/30 09:19:35;;;;;;;5.80;4.40;;;;;;;34.58;37.76;96989.20;110160;1244;70541;-70
2023/07/30 09:22:06;;;;;;;4.70;4.30;;;;;;;34.78;37.68;96984.95;110192;1243;69831;-70
2023/07/30 09:24:35;;;;;;;4.60;4.10;;;;;;;34.68;37.25;96981.55;110239;1244;69110;-68
2023/07/30 09:27:04;;;;;;;4.90;4.10;;;;;;;34.04;37.69;96971.45;110088;1241;59679;-69
2023/07/30 09:29:33;;;;;;;4.80;3.80;;;;;;;34.78;37.06;96969.38;110184;1244;59692;-70
2023/07/30 09:32:03;;;;;;;5.20;4.70;;;;;;;35.09;35.85;96964.09;110120;1241;71349;-69
2023/07/30 09:34:32;;;;;;;5.00;3.90;;;;;;;34.68;35.76;96966.41;110138;1241;69336;-69
2023/07/30 09:37:02;;;;;;;6.40;4.20;;;;;;;34.06;36.29;96964.52;110121;1245;69691;-70
2023/07/30 09:39:32;;;;;;;5.30;4.00;;;;;;;33.74;38.35;96962.98;110169;1244;59744;-67
2023/07/30 09:42:01;;;;;;;4.60;4.00;;;;;;;34.15;37.97;96963.70;110089;1244;59777;-69
2023/07/30 09:44:33;;;;;;;5.40;4.40;;;;;;;34.49;37.43;96960.59;110159;1244;71977;-70
2023/07/30 09:47:06;;;;;;;5.40;4.90;;;;;;;34.41;35.58;96957.41;110105;1244;70274;-69
2023/07/30 09:49:38;;;;;;;4.50;3.90;;;;;;;34.21;36.12;96955.31;110104;1244;69883;-69
2023/07/30 09:52:07;;;;;;;5.20;4.70;;;;;;;33.72;36.44;96952.41;110129;1241;59705;-68
2023/07/30 09:54:37;;;;;;;4.20;3.80;;;;;;;33.67;36.26;96948.84;110129;1241;59752;-67
2023/07/30 09:57:06;;;;;;;4.70;4.20;;;;;;;34.26;35.99;96949.73;110140;1244;71956;-68
2023/07/30 09:59:35;;;;;;;4.80;3.90;;;;;;;34.26;36.34;96949.14;110124;1241;70196;-67
2023/07/30 10:02:07;;;;;;;4.50;3.70;;;;;;;34.62;35.88;96944.73;110163;1244;69285;-66
2023/07/30 10:04:42;;;;;;;4.50;4.10;;;;;;;34.88;35.64;96940.94;110150;1245;59675;-68
2023/07/30 10:07:16;;;;;;;5.90;4.30;;;;;;;34.65;36.08;96939.97;110125;1242;59679;-67
2023/07/30 10:09:49;;;;;;;3.90;3.50;;;;;;;34.00;36.89;96936.86;110138;1244;72059;-68
2023/07/30 10:12:22;;;;;;;4.70;4.30;;;;;;;33.53;37.21;96936.35;110174;1241;69182;-67
2023/07/30 10:14:51;;;;;;;4.50;4.10;;;;;;;33.47;37.34;96931.85;110093;1242;70038;-69
2023/07/30 10:17:20;;;;;;;4.50;4.00;;;;;;;33.00;38.64;96930.34;110096;1245;59772;-69
2023/07/30 10:19:50;;;;;;;3.70;3.40;;;;;;;32.52;39.94;96925.68;110151;1244;59711;-67
2023/07/30 10:22:25;;;;;;;5.00;4.50;;;;;;;33.04;38.26;96928.99;110139;1241;70657;-68
2023/07/30 10:25:02;;;;;;;5.10;4.00;;;;;;;32.95;39.52;96927.45;110100;1241;69262;-68
2023/07/30 10:27:40;;;;;;;5.10;4.00;;;;;;;33.60;38.01;96921.69;110089;1244;69861;-68
2023/07/30 10:30:09;;;;;;;4.70;4.20;;;;;;;33.56;37.37;96918.58;110142;1244;59741;-66
2023/07/30 10:32:40;;;;;;;4.50;4.10;;;;;;;33.47;37.56;96914.02;110120;1241;59731;-68
2023/07/30 10:35:37;;;;;;;4.20;3.70;;;;;;;33.62;38.67;96909.07;110155;1244;70641;-70
2023/07/30 10:38:28;;;;;;;6.20;4.30;;;;;;;33.24;37.67;96903.86;110157;1243;69816;-68
2023/07/30 10:41:06;;;;;;;4.40;3.80;;;;;;;33.69;37.79;96905.57;110167;1243;69289;-68
2023/07/30 10:43:36;;;;;;;;;;;;;;;33.46;38.43;96895.71;110175;1244;59690;-69
2023/07/30 10:46:08;;;;;;;4.60;3.90;;;;;;;33.74;37.89;96889.76;110211;1241;59738;-69
2023/07/30 10:48:39;;;;;;;4.80;4.10;;;;;;;34.50;37.22;96889.61;110056;1244;70625;-68
2023/07/30 10:51:16;;;;;;;5.10;4.20;;;;;;;34.37;36.56;96883.31;110131;1243;68469;-68
2023/07/30 10:53:47;;;;;;;5.00;4.00;;;;;;;34.50;37.37;96879.04;110152;1244;69762;-68
2023/07/30 10:56:18;;;;;;;4.50;4.00;;;;;;;34.75;36.49;96872.60;110148;1244;59693;-67
2023/07/30 10:58:52;;;;;;;5.40;3.90;;;;;;;34.63;36.46;96874.69;110153;1244;59695;-68
2023/07/30 11:01:26;;;;;;;4.50;4.00;;;;;;;34.94;34.75;96869.93;110180;1244;71956;-68
2023/07/30 11:03:55;;;;;;;4.60;4.10;;;;;;;34.68;35.12;96869.96;110148;1241;69823;-68
2023/07/30 11:06:25;;;;;;;4.90;4.40;;;;;;;34.52;34.79;96867.52;110090;1241;69900;-68
2023/07/30 11:08:54;;;;;;;4.90;4.40;;;;;;;34.66;34.59;96868.60;110133;1244;59757;-68
2023/07/30 11:11:25;;;;;;;4.80;4.00;;;;;;;34.97;34.23;96867.65;110156;1242;59641;-67
2023/07/30 11:13:54;;;;;;;4.50;4.10;;;;;;;34.54;34.63;96868.27;110095;1244;71989;-68
2023/07/30 11:16:24;;;;;;;4.30;3.90;;;;;;;34.68;34.65;96866.38;110158;1243;69427;-68
2023/07/30 11:18:53;;;;;;;4.70;3.70;;;;;;;35.01;34.10;96863.45;110101;1244;69265;-69
2023/07/30 11:21:22;;;;;;;4.60;3.90;;;;;;;35.43;34.69;96868.48;109938;1244;59757;-68
2023/07/30 11:23:51;;;;;;;4.40;3.50;;;;;;;35.61;34.47;96866.94;110149;1241;59702;-68
2023/07/30 11:26:20;;;;;;;4.60;3.80;;;;;;;35.49;33.36;96865.93;110136;1241;71997;-68
2023/07/30 11:28:49;;;;;;;5.10;4.60;;;;;;;35.23;33.07;96861.66;110106;1241;68422;-69
2023/07/30 11:31:21;;;;;;;5.30;4.80;;;;;;;35.63;32.79;96863.49;110138;1241;69709;-68
2023/07/30 11:33:52;;;;;;;5.10;4.30;;;;;;;35.47;33.21;96864.98;110071;1244;59741;-68
2023/07/30 11:36:24;;;;;;;4.90;4.40;;;;;;;35.52;32.39;96868.36;110127;1241;59744;-69
2023/07/30 11:38:53;;;;;;;4.90;4.40;;;;;;;35.06;33.11;96862.98;110112;1241;70468;-68